Portada
METAR-TAF:

METAR-TAF

Aeroports :

Bukharà, Uzbekistan

latitud: 39-46-30N, longitud: 064-29-00E, altitud: 229 m

Observació

L'informe es va fer fa 34 minuts, a les 15:00 UTC
Vent 6 kt del Sud
Temperatura 12°C
Humitat 47%
Pressió 1013 hPa
Visibilitat: 8000 m

METAR: UTSB 201500Z 17006KT 8000 NSC 12/01 Q1013 R01/CLRD70 NOSIG

Hora: 20:34 (15:34 UTC)

Pronòstic

L'informe es va fer fa 4 hores i 34 minuts, a les 11:00 UTC
Pronòstic vàlid del 20 a les 12 UTC al 21 a les 12 UTC
Vent 8 kt del Sud/Sud-Oest
Visibilitat: 7000 m
Temporalment
l' 20 a les 12 UTC al 20 a les 23 UTC
Vent 14 kt del Sud
Visibilitat: 3000 m
Núvols disperses a una alçada de 3300 ft
calitja

TAF: UTSB 201100Z 2012/2112 20008KT 7000 NSC TEMPO 2012/2023 17014KT 3000 HZ SCT033

Observacions i pronòstics meteorològics de més de 4000 aeroports (METAR i TAF).

Les estacions disponibles són els punts grocs i vermells al mapa.

Posi el ratolí al punt desitjat per veure el nom de l'estació.

Feu clic per veure les observacions i els pronòstics meteorològics.

Per canviar el mapa: feu clic els botons verds amb una creu de color negre per apropar; al botó verd amb un guió per allunyar la imatge; o en les fletxes verdes per a mapes adjacents.


METAR-TAF: